sensor_id;sensor_type;location;lat;lon;timestamp;pressure;altitude;pressure_sealevel;temperature;humidity
36190;BME280;22232;50.914;13.858;2023-11-18T00:00:15;98285.84;;;3.01;100.00
36190;BME280;22232;50.914;13.858;2023-11-18T00:02:45;98297.56;;;2.98;100.00
36190;BME280;22232;50.914;13.858;2023-11-18T00:05:13;98294.44;;;2.94;100.00
36190;BME280;22232;50.914;13.858;2023-11-18T00:07:41;98293.28;;;2.97;100.00
36190;BME280;22232;50.914;13.858;2023-11-18T00:10:10;98294.63;;;2.93;100.00
36190;BME280;22232;50.914;13.858;2023-11-18T00:12:38;98295.44;;;2.93;100.00
36190;BME280;22232;50.914;13.858;2023-11-18T00:15:10;98304.34;;;2.92;100.00
36190;BME280;22232;50.914;13.858;2023-11-18T00:17:39;98302.69;;;2.91;100.00
36190;BME280;22232;50.914;13.858;2023-11-18T00:20:08;98311.94;;;2.87;100.00
36190;BME280;22232;50.914;13.858;2023-11-18T00:22:41;98317.69;;;2.91;100.00
36190;BME280;22232;50.914;13.858;2023-11-18T00:25:09;98317.53;;;2.84;100.00
36190;BME280;22232;50.914;13.858;2023-11-18T00:27:38;98318.03;;;2.88;100.00
36190;BME280;22232;50.914;13.858;2023-11-18T00:30:06;98326.41;;;2.91;100.00
36190;BME280;22232;50.914;13.858;2023-11-18T00:32:35;98329.56;;;2.87;100.00
36190;BME280;22232;50.914;13.858;2023-11-18T00:35:04;98334.66;;;2.88;100.00
36190;BME280;22232;50.914;13.858;2023-11-18T00:37:34;98339.63;;;2.83;100.00
36190;BME280;22232;50.914;13.858;2023-11-18T00:40:02;98345.50;;;2.85;100.00
36190;BME280;22232;50.914;13.858;2023-11-18T00:42:30;98344.69;;;2.85;100.00
36190;BME280;22232;50.914;13.858;2023-11-18T00:44:58;98357.06;;;2.84;100.00
36190;BME280;22232;50.914;13.858;2023-11-18T00:47:26;98354.75;;;2.89;100.00
36190;BME280;22232;50.914;13.858;2023-11-18T00:49:54;98360.66;;;2.91;100.00
36190;BME280;22232;50.914;13.858;2023-11-18T00:52:22;98364.63;;;2.87;100.00
36190;BME280;22232;50.914;13.858;2023-11-18T00:54:49;98362.31;;;2.92;100.00
36190;BME280;22232;50.914;13.858;2023-11-18T00:57:17;98367.25;;;2.87;100.00
36190;BME280;22232;50.914;13.858;2023-11-18T00:59:44;98364.78;;;2.86;100.00
36190;BME280;22232;50.914;13.858;2023-11-18T01:02:12;98368.75;;;2.90;100.00
36190;BME280;22232;50.914;13.858;2023-11-18T01:04:41;98371.38;;;2.90;100.00
36190;BME280;22232;50.914;13.858;2023-11-18T01:07:08;98372.53;;;2.87;100.00
36190;BME280;22232;50.914;13.858;2023-11-18T01:09:36;98373.88;;;2.83;100.00
36190;BME280;22232;50.914;13.858;2023-11-18T01:12:06;98373.00;;;2.91;100.00
36190;BME280;22232;50.914;13.858;2023-11-18T01:14:38;98374.81;;;2.90;100.00
36190;BME280;22232;50.914;13.858;2023-11-18T01:17:07;98371.72;;;2.87;100.00
36190;BME280;22232;50.914;13.858;2023-11-18T01:19:36;98379.28;;;2.82;100.00
36190;BME280;22232;50.914;13.858;2023-11-18T01:22:04;98375.97;;;2.80;100.00
36190;BME280;22232;50.914;13.858;2023-11-18T01:24:35;98374.53;;;2.77;100.00
36190;BME280;22232;50.914;13.858;2023-11-18T01:27:03;98381.91;;;2.73;100.00
36190;BME280;22232;50.914;13.858;2023-11-18T01:29:31;98380.63;;;2.69;100.00
36190;BME280;22232;50.914;13.858;2023-11-18T01:32:00;98380.13;;;2.66;100.00
36190;BME280;22232;50.914;13.858;2023-11-18T01:34:28;98384.06;;;2.70;100.00
36190;BME280;22232;50.914;13.858;2023-11-18T01:36:55;98391.66;;;2.65;100.00
36190;BME280;22232;50.914;13.858;2023-11-18T01:39:24;98389.19;;;2.63;100.00
36190;BME280;22232;50.914;13.858;2023-11-18T01:41:55;98392.81;;;2.62;100.00
36190;BME280;22232;50.914;13.858;2023-11-18T01:44:22;98398.88;;;2.55;100.00
36190;BME280;22232;50.914;13.858;2023-11-18T01:46:51;98399.06;;;2.69;100.00
36190;BME280;22232;50.914;13.858;2023-11-18T01:49:19;98401.19;;;2.66;100.00
36190;BME280;22232;50.914;13.858;2023-11-18T01:51:47;98404.16;;;2.63;100.00
36190;BME280;22232;50.914;13.858;2023-11-18T01:54:19;98404.97;;;2.63;100.00
36190;BME280;22232;50.914;13.858;2023-11-18T01:56:49;98403.97;;;2.64;100.00
36190;BME280;22232;50.914;13.858;2023-11-18T01:59:16;98402.53;;;2.62;100.00
36190;BME280;22232;50.914;13.858;2023-11-18T02:01:49;98406.94;;;2.61;100.00
36190;BME280;22232;50.914;13.858;2023-11-18T02:04:19;98405.16;;;2.62;100.00
36190;BME280;22232;50.914;13.858;2023-11-18T02:06:52;98416.19;;;2.65;100.00
36190;BME280;22232;50.914;13.858;2023-11-18T02:09:20;98417.16;;;2.64;100.00
36190;BME280;22232;50.914;13.858;2023-11-18T02:14:33;98418.63;;;2.59;100.00
36190;BME280;22232;50.914;13.858;2023-11-18T02:17:02;98415.69;;;2.62;100.00
36190;BME280;22232;50.914;13.858;2023-11-18T02:19:31;98411.56;;;2.59;100.00
36190;BME280;22232;50.914;13.858;2023-11-18T02:21:59;98416.00;;;2.59;100.00
36190;BME280;22232;50.914;13.858;2023-11-18T02:24:31;98414.88;;;2.53;100.00
36190;BME280;22232;50.914;13.858;2023-11-18T02:27:00;98412.53;;;2.58;100.00
36190;BME280;22232;50.914;13.858;2023-11-18T02:29:33;98418.78;;;2.49;100.00
36190;BME280;22232;50.914;13.858;2023-11-18T02:32:25;98418.66;;;2.50;100.00
36190;BME280;22232;50.914;13.858;2023-11-18T02:38:00;98422.78;;;2.53;100.00
36190;BME280;22232;50.914;13.858;2023-11-18T02:40:32;98416.84;;;2.51;100.00
36190;BME280;22232;50.914;13.858;2023-11-18T02:43:04;98416.50;;;2.54;100.00
36190;BME280;22232;50.914;13.858;2023-11-18T02:45:34;98411.56;;;2.51;100.00
36190;BME280;22232;50.914;13.858;2023-11-18T02:48:04;98412.38;;;2.51;100.00
36190;BME280;22232;50.914;13.858;2023-11-18T02:50:35;98410.41;;;2.53;100.00
36190;BME280;22232;50.914;13.858;2023-11-18T02:53:05;98414.03;;;2.52;100.00
36190;BME280;22232;50.914;13.858;2023-11-18T02:55:33;98407.59;;;2.55;100.00
36190;BME280;22232;50.914;13.858;2023-11-18T02:58:01;98415.69;;;2.53;100.00
36190;BME280;22232;50.914;13.858;2023-11-18T03:00:34;98417.97;;;2.48;100.00
36190;BME280;22232;50.914;13.858;2023-11-18T03:03:01;98415.34;;;2.48;100.00
36190;BME280;22232;50.914;13.858;2023-11-18T03:05:30;98404.66;;;2.50;100.00
36190;BME280;22232;50.914;13.858;2023-11-18T03:07:58;98403.81;;;2.49;100.00
36190;BME280;22232;50.914;13.858;2023-11-18T03:10:26;98403.50;;;2.44;100.00
36190;BME280;22232;50.914;13.858;2023-11-18T03:12:54;98412.22;;;2.45;100.00
36190;BME280;22232;50.914;13.858;2023-11-18T03:15:22;98412.69;;;2.40;100.00
36190;BME280;22232;50.914;13.858;2023-11-18T03:17:51;98417.81;;;2.42;100.00
36190;BME280;22232;50.914;13.858;2023-11-18T03:20:20;98419.97;;;2.38;100.00
36190;BME280;22232;50.914;13.858;2023-11-18T03:22:50;98417.31;;;2.38;100.00
36190;BME280;22232;50.914;13.858;2023-11-18T03:25:20;98424.91;;;2.41;100.00
36190;BME280;22232;50.914;13.858;2023-11-18T03:27:51;98427.84;;;2.38;100.00
36190;BME280;22232;50.914;13.858;2023-11-18T03:30:21;98426.19;;;2.37;100.00
36190;BME280;22232;50.914;13.858;2023-11-18T03:32:49;98441.00;;;2.30;100.00
36190;BME280;22232;50.914;13.858;2023-11-18T03:35:17;98432.09;;;2.31;100.00
36190;BME280;22232;50.914;13.858;2023-11-18T03:37:44;98440.84;;;2.23;100.00
36190;BME280;22232;50.914;13.858;2023-11-18T03:40:14;98443.28;;;2.25;100.00
36190;BME280;22232;50.914;13.858;2023-11-18T03:42:42;98438.88;;;2.25;100.00
36190;BME280;22232;50.914;13.858;2023-11-18T03:45:10;98440.66;;;2.25;100.00
36190;BME280;22232;50.914;13.858;2023-11-18T03:47:38;98445.59;;;2.28;100.00
36190;BME280;22232;50.914;13.858;2023-11-18T03:50:07;98454.47;;;2.27;100.00
36190;BME280;22232;50.914;13.858;2023-11-18T03:52:36;98452.84;;;2.26;100.00
36190;BME280;22232;50.914;13.858;2023-11-18T03:55:06;98449.88;;;2.29;100.00
36190;BME280;22232;50.914;13.858;2023-11-18T03:57:34;98452.03;;;2.25;100.00
36190;BME280;22232;50.914;13.858;2023-11-18T04:00:02;98451.06;;;2.35;100.00
36190;BME280;22232;50.914;13.858;2023-11-18T04:02:36;98450.88;;;2.36;100.00
36190;BME280;22232;50.914;13.858;2023-11-18T04:05:05;98456.16;;;2.36;100.00
36190;BME280;22232;50.914;13.858;2023-11-18T04:07:34;98449.88;;;2.37;100.00
36190;BME280;22232;50.914;13.858;2023-11-18T04:10:01;98456.50;;;2.41;100.00
36190;BME280;22232;50.914;13.858;2023-11-18T04:12:29;98455.50;;;2.42;100.00
36190;BME280;22232;50.914;13.858;2023-11-18T04:14:58;98460.63;;;2.44;100.00
36190;BME280;22232;50.914;13.858;2023-11-18T04:17:25;98461.44;;;2.44;100.00
36190;BME280;22232;50.914;13.858;2023-11-18T04:19:55;98463.06;;;2.45;100.00
36190;BME280;22232;50.914;13.858;2023-11-18T04:22:23;98459.94;;;2.42;100.00
36190;BME280;22232;50.914;13.858;2023-11-18T04:24:51;98462.06;;;2.46;100.00
36190;BME280;22232;50.914;13.858;2023-11-18T04:27:18;98472.09;;;2.43;100.00
36190;BME280;22232;50.914;13.858;2023-11-18T04:29:46;98464.38;;;2.41;100.00
36190;BME280;22232;50.914;13.858;2023-11-18T04:32:13;98466.69;;;2.44;100.00
36190;BME280;22232;50.914;13.858;2023-11-18T04:34:41;98463.75;;;2.47;100.00
36190;BME280;22232;50.914;13.858;2023-11-18T04:37:10;98464.88;;;2.45;100.00
36190;BME280;22232;50.914;13.858;2023-11-18T04:39:37;98462.91;;;2.47;100.00
36190;BME280;22232;50.914;13.858;2023-11-18T04:42:05;98470.97;;;2.45;100.00
36190;BME280;22232;50.914;13.858;2023-11-18T04:44:33;98469.97;;;2.46;100.00
36190;BME280;22232;50.914;13.858;2023-11-18T04:47:00;98461.75;;;2.41;100.00
36190;BME280;22232;50.914;13.858;2023-11-18T04:49:29;98467.19;;;2.48;100.00
36190;BME280;22232;50.914;13.858;2023-11-18T04:51:57;98473.44;;;2.47;100.00
36190;BME280;22232;50.914;13.858;2023-11-18T04:54:26;98469.16;;;2.54;100.00
36190;BME280;22232;50.914;13.858;2023-11-18T04:56:53;98481.66;;;2.52;100.00
36190;BME280;22232;50.914;13.858;2023-11-18T04:59:21;98473.78;;;2.44;100.00
36190;BME280;22232;50.914;13.858;2023-11-18T05:01:49;98468.34;;;2.45;100.00
36190;BME280;22232;50.914;13.858;2023-11-18T05:04:16;98475.09;;;2.48;100.00
36190;BME280;22232;50.914;13.858;2023-11-18T05:06:44;98476.25;;;2.53;100.00
36190;BME280;22232;50.914;13.858;2023-11-18T05:09:12;98480.38;;;2.56;100.00
36190;BME280;22232;50.914;13.858;2023-11-18T05:11:39;98479.88;;;2.61;100.00
36190;BME280;22232;50.914;13.858;2023-11-18T05:14:07;98478.25;;;2.68;100.00
36190;BME280;22232;50.914;13.858;2023-11-18T05:16:35;98480.88;;;2.68;100.00
36190;BME280;22232;50.914;13.858;2023-11-18T05:19:02;98484.47;;;2.67;100.00
36190;BME280;22232;50.914;13.858;2023-11-18T05:21:30;98481.19;;;2.73;100.00
36190;BME280;22232;50.914;13.858;2023-11-18T05:23:58;98483.66;;;2.58;100.00
36190;BME280;22232;50.914;13.858;2023-11-18T05:26:25;98490.91;;;2.56;100.00
36190;BME280;22232;50.914;13.858;2023-11-18T05:28:54;98489.59;;;2.60;100.00
36190;BME280;22232;50.914;13.858;2023-11-18T05:31:22;98490.41;;;2.61;100.00
36190;BME280;22232;50.914;13.858;2023-11-18T05:33:49;98491.41;;;2.60;100.00
36190;BME280;22232;50.914;13.858;2023-11-18T05:36:19;98492.38;;;2.59;100.00
36190;BME280;22232;50.914;13.858;2023-11-18T05:38:54;98488.91;;;2.58;100.00
36190;BME280;22232;50.914;13.858;2023-11-18T05:41:22;98495.50;;;2.54;100.00
36190;BME280;22232;50.914;13.858;2023-11-18T05:43:55;98485.78;;;2.55;100.00
36190;BME280;22232;50.914;13.858;2023-11-18T05:46:26;98494.00;;;2.51;100.00
36190;BME280;22232;50.914;13.858;2023-11-18T05:49:02;98483.97;;;2.55;100.00
36190;BME280;22232;50.914;13.858;2023-11-18T05:51:33;98491.38;;;2.51;100.00
36190;BME280;22232;50.914;13.858;2023-11-18T05:54:01;98490.56;;;2.51;100.00
36190;BME280;22232;50.914;13.858;2023-11-18T05:56:28;98495.81;;;2.51;100.00
36190;BME280;22232;50.914;13.858;2023-11-18T05:58:56;98496.47;;;2.45;100.00
36190;BME280;22232;50.914;13.858;2023-11-18T06:01:25;98500.25;;;2.42;100.00
36190;BME280;22232;50.914;13.858;2023-11-18T06:03:56;98496.81;;;2.50;100.00
36190;BME280;22232;50.914;13.858;2023-11-18T06:06:24;98506.50;;;2.49;100.00
36190;BME280;22232;50.914;13.858;2023-11-18T06:08:52;98514.41;;;2.49;100.00
36190;BME280;22232;50.914;13.858;2023-11-18T06:11:21;98516.56;;;2.54;100.00
36190;BME280;22232;50.914;13.858;2023-11-18T06:13:51;98519.03;;;2.56;100.00
36190;BME280;22232;50.914;13.858;2023-11-18T06:16:24;98513.13;;;2.53;100.00
36190;BME280;22232;50.914;13.858;2023-11-18T06:18:57;98518.06;;;2.57;100.00
36190;BME280;22232;50.914;13.858;2023-11-18T06:21:26;98517.72;;;2.60;100.00
36190;BME280;22232;50.914;13.858;2023-11-18T06:23:58;98524.63;;;2.61;100.00
36190;BME280;22232;50.914;13.858;2023-11-18T06:26:27;98523.16;;;2.58;100.00
36190;BME280;22232;50.914;13.858;2023-11-18T06:28:56;98530.91;;;2.60;100.00
36190;BME280;22232;50.914;13.858;2023-11-18T06:31:24;98525.47;;;2.61;100.00
36190;BME280;22232;50.914;13.858;2023-11-18T06:33:52;98530.72;;;2.61;100.00
36190;BME280;22232;50.914;13.858;2023-11-18T06:36:21;98529.22;;;2.59;100.00
36190;BME280;22232;50.914;13.858;2023-11-18T06:38:50;98532.03;;;2.57;100.00
36190;BME280;22232;50.914;13.858;2023-11-18T06:41:22;98529.09;;;2.60;100.00
36190;BME280;22232;50.914;13.858;2023-11-18T06:44:04;98537.16;;;2.67;100.00
36190;BME280;22232;50.914;13.858;2023-11-18T06:46:40;98527.28;;;2.61;100.00
36190;BME280;22232;50.914;13.858;2023-11-18T06:49:08;98531.56;;;2.62;100.00
36190;BME280;22232;50.914;13.858;2023-11-18T06:51:38;98536.00;;;2.61;100.00
36190;BME280;22232;50.914;13.858;2023-11-18T06:54:06;98531.88;;;2.59;100.00
36190;BME280;22232;50.914;13.858;2023-11-18T06:56:42;98542.25;;;2.60;100.00
36190;BME280;22232;50.914;13.858;2023-11-18T06:59:12;98534.34;;;2.60;100.00
36190;BME280;22232;50.914;13.858;2023-11-18T07:01:41;98541.94;;;2.63;100.00
36190;BME280;22232;50.914;13.858;2023-11-18T07:04:13;98537.66;;;2.70;100.00
36190;BME280;22232;50.914;13.858;2023-11-18T07:06:42;98543.09;;;2.69;100.00
36190;BME280;22232;50.914;13.858;2023-11-18T07:09:11;98549.84;;;2.71;100.00
36190;BME280;22232;50.914;13.858;2023-11-18T07:11:48;98548.72;;;2.74;100.00
36190;BME280;22232;50.914;13.858;2023-11-18T07:14:16;98550.50;;;2.73;100.00
36190;BME280;22232;50.914;13.858;2023-11-18T07:16:44;98552.97;;;2.67;100.00
36190;BME280;22232;50.914;13.858;2023-11-18T07:19:12;98560.22;;;2.73;100.00
36190;BME280;22232;50.914;13.858;2023-11-18T07:21:49;98554.63;;;2.76;100.00
36190;BME280;22232;50.914;13.858;2023-11-18T07:24:17;98558.06;;;2.76;100.00
36190;BME280;22232;50.914;13.858;2023-11-18T07:26:45;98561.56;;;2.77;100.00
36190;BME280;22232;50.914;13.858;2023-11-18T07:29:13;98556.47;;;2.84;100.00
36190;BME280;22232;50.914;13.858;2023-11-18T07:31:42;98563.84;;;2.88;100.00
36190;BME280;22232;50.914;13.858;2023-11-18T07:34:10;98572.41;;;2.82;100.00
36190;BME280;22232;50.914;13.858;2023-11-18T07:36:38;98558.41;;;2.82;100.00
36190;BME280;22232;50.914;13.858;2023-11-18T07:39:05;98564.03;;;2.87;100.00
36190;BME280;22232;50.914;13.858;2023-11-18T07:41:43;98565.50;;;2.97;100.00
36190;BME280;22232;50.914;13.858;2023-11-18T07:44:11;98572.94;;;3.02;100.00
36190;BME280;22232;50.914;13.858;2023-11-18T07:46:40;98564.03;;;3.03;100.00
36190;BME280;22232;50.914;13.858;2023-11-18T07:49:10;98568.84;;;3.08;100.00
36190;BME280;22232;50.914;13.858;2023-11-18T07:51:39;98572.59;;;3.13;100.00
36190;BME280;22232;50.914;13.858;2023-11-18T07:54:08;98575.09;;;3.23;100.00
36190;BME280;22232;50.914;13.858;2023-11-18T07:56:38;98569.81;;;3.31;100.00
36190;BME280;22232;50.914;13.858;2023-11-18T07:59:05;98573.94;;;3.42;100.00
36190;BME280;22232;50.914;13.858;2023-11-18T08:01:35;98579.69;;;3.45;100.00
36190;BME280;22232;50.914;13.858;2023-11-18T08:04:03;98577.38;;;3.42;100.00
36190;BME280;22232;50.914;13.858;2023-11-18T08:06:34;98580.31;;;3.56;100.00
36190;BME280;22232;50.914;13.858;2023-11-18T08:09:01;98585.59;;;3.56;100.00
36190;BME280;22232;50.914;13.858;2023-11-18T08:11:30;98586.28;;;3.66;100.00
36190;BME280;22232;50.914;13.858;2023-11-18T08:13:57;98597.44;;;3.76;100.00
36190;BME280;22232;50.914;13.858;2023-11-18T08:16:26;98593.19;;;3.67;100.00
36190;BME280;22232;50.914;13.858;2023-11-18T08:18:55;98593.03;;;3.68;100.00
36190;BME280;22232;50.914;13.858;2023-11-18T08:21:23;98591.69;;;3.73;100.00
36190;BME280;22232;50.914;13.858;2023-11-18T08:23:50;98593.50;;;3.72;100.00
36190;BME280;22232;50.914;13.858;2023-11-18T08:26:20;98594.97;;;3.83;100.00
36190;BME280;22232;50.914;13.858;2023-11-18T08:28:47;98602.38;;;3.96;100.00
36190;BME280;22232;50.914;13.858;2023-11-18T08:31:15;98595.75;;;4.00;100.00
36190;BME280;22232;50.914;13.858;2023-11-18T08:33:43;98608.97;;;4.00;100.00
36190;BME280;22232;50.914;13.858;2023-11-18T08:36:13;98607.63;;;4.04;100.00
36190;BME280;22232;50.914;13.858;2023-11-18T08:38:41;98612.25;;;4.02;100.00
36190;BME280;22232;50.914;13.858;2023-11-18T08:41:11;98617.84;;;4.07;100.00
36190;BME280;22232;50.914;13.858;2023-11-18T08:43:39;98610.94;;;3.98;100.00
36190;BME280;22232;50.914;13.858;2023-11-18T08:46:10;98618.84;;;4.06;100.00
36190;BME280;22232;50.914;13.858;2023-11-18T08:48:39;98621.75;;;4.19;100.00
36190;BME280;22232;50.914;13.858;2023-11-18T08:51:07;98626.75;;;4.14;100.00
36190;BME280;22232;50.914;13.858;2023-11-18T08:53:38;98625.09;;;4.13;100.00
36190;BME280;22232;50.914;13.858;2023-11-18T08:56:09;98632.03;;;4.06;100.00
36190;BME280;22232;50.914;13.858;2023-11-18T08:58:43;98632.31;;;4.19;100.00
36190;BME280;22232;50.914;13.858;2023-11-18T09:01:12;98631.50;;;4.19;100.00
36190;BME280;22232;50.914;13.858;2023-11-18T09:03:43;98637.94;;;4.16;100.00
36190;BME280;22232;50.914;13.858;2023-11-18T09:06:16;98637.59;;;4.27;100.00
36190;BME280;22232;50.914;13.858;2023-11-18T09:08:53;98642.53;;;4.22;100.00
36190;BME280;22232;50.914;13.858;2023-11-18T09:11:23;98635.41;;;4.39;100.00
36190;BME280;22232;50.914;13.858;2023-11-18T09:13:51;98644.94;;;4.48;100.00
36190;BME280;22232;50.914;13.858;2023-11-18T09:16:24;98645.75;;;4.57;100.00
36190;BME280;22232;50.914;13.858;2023-11-18T09:18:57;98645.56;;;4.58;100.00
36190;BME280;22232;50.914;13.858;2023-11-18T09:21:27;98642.91;;;4.58;100.00
36190;BME280;22232;50.914;13.858;2023-11-18T09:23:57;98641.88;;;4.68;100.00
36190;BME280;22232;50.914;13.858;2023-11-18T09:26:25;98649.44;;;4.79;100.00
36190;BME280;22232;50.914;13.858;2023-11-18T09:28:57;98648.56;;;4.87;100.00
36190;BME280;22232;50.914;13.858;2023-11-18T09:31:25;98647.22;;;4.91;100.00
36190;BME280;22232;50.914;13.858;2023-11-18T09:33:54;98643.06;;;4.96;100.00
36190;BME280;22232;50.914;13.858;2023-11-18T09:36:25;98646.53;;;4.97;100.00
36190;BME280;22232;50.914;13.858;2023-11-18T09:38:56;98641.88;;;4.99;100.00
36190;BME280;22232;50.914;13.858;2023-11-18T09:41:24;98646.66;;;5.03;100.00
36190;BME280;22232;50.914;13.858;2023-11-18T09:43:55;98634.56;;;5.09;100.00
36190;BME280;22232;50.914;13.858;2023-11-18T09:46:26;98635.50;;;5.16;100.00
36190;BME280;22232;50.914;13.858;2023-11-18T09:49:18;98636.78;;;5.20;100.00
36190;BME280;22232;50.914;13.858;2023-11-18T09:51:57;98632.09;;;5.31;100.00
36190;BME280;22232;50.914;13.858;2023-11-18T09:54:44;98629.75;;;5.36;100.00
36190;BME280;22232;50.914;13.858;2023-11-18T09:57:29;98633.63;;;5.25;100.00
36190;BME280;22232;50.914;13.858;2023-11-18T10:00:02;98636.19;;;5.10;100.00
36190;BME280;22232;50.914;13.858;2023-11-18T10:02:54;98634.84;;;5.14;100.00
36190;BME280;22232;50.914;13.858;2023-11-18T10:05:29;98632.28;;;5.06;100.00
36190;BME280;22232;50.914;13.858;2023-11-18T10:07:57;98641.72;;;5.00;100.00
36190;BME280;22232;50.914;13.858;2023-11-18T10:10:26;98640.25;;;4.98;100.00
36190;BME280;22232;50.914;13.858;2023-11-18T10:13:04;98636.03;;;5.12;100.00
36190;BME280;22232;50.914;13.858;2023-11-18T10:15:46;98630.88;;;5.18;100.00
36190;BME280;22232;50.914;13.858;2023-11-18T10:18:18;98630.88;;;5.18;100.00
36190;BME280;22232;50.914;13.858;2023-11-18T10:20:52;98631.91;;;5.32;100.00
36190;BME280;22232;50.914;13.858;2023-11-18T10:23:21;98632.69;;;5.41;100.00
36190;BME280;22232;50.914;13.858;2023-11-18T10:25:58;98622.91;;;5.41;100.00
36190;BME280;22232;50.914;13.858;2023-11-18T10:28:35;98631.56;;;5.58;100.00
36190;BME280;22232;50.914;13.858;2023-11-18T10:31:06;98630.47;;;5.67;100.00
36190;BME280;22232;50.914;13.858;2023-11-18T10:33:40;98629.06;;;5.80;100.00
36190;BME280;22232;50.914;13.858;2023-11-18T10:36:20;98621.56;;;5.83;100.00
36190;BME280;22232;50.914;13.858;2023-11-18T10:38:55;98627.41;;;5.79;100.00
36190;BME280;22232;50.914;13.858;2023-11-18T10:41:27;98623.25;;;5.61;100.00
36190;BME280;22232;50.914;13.858;2023-11-18T10:44:08;98623.06;;;5.63;100.00
36190;BME280;22232;50.914;13.858;2023-11-18T10:46:37;98626.47;;;5.71;100.00
36190;BME280;22232;50.914;13.858;2023-11-18T10:49:05;98627.78;;;5.75;100.00
36190;BME280;22232;50.914;13.858;2023-11-18T10:51:39;98620.19;;;5.72;100.00
36190;BME280;22232;50.914;13.858;2023-11-18T10:54:08;98622.47;;;5.75;100.00
36190;BME280;22232;50.914;13.858;2023-11-18T10:56:51;98633.03;;;5.61;100.00
36190;BME280;22232;50.914;13.858;2023-11-18T10:59:21;98624.19;;;5.68;100.00
36190;BME280;22232;50.914;13.858;2023-11-18T11:01:49;98628.97;;;5.50;100.00
36190;BME280;22232;50.914;13.858;2023-11-18T11:04:18;98627.13;;;5.50;100.00
36190;BME280;22232;50.914;13.858;2023-11-18T11:06:49;98620.91;;;5.66;100.00
36190;BME280;22232;50.914;13.858;2023-11-18T11:09:21;98624.47;;;5.73;100.00
36190;BME280;22232;50.914;13.858;2023-11-18T11:11:57;98625.03;;;5.84;97.13
36190;BME280;22232;50.914;13.858;2023-11-18T11:14:35;98631.41;;;5.97;97.09
36190;BME280;22232;50.914;13.858;2023-11-18T11:17:12;98623.44;;;5.97;95.49
36190;BME280;22232;50.914;13.858;2023-11-18T11:19:52;98623.00;;;6.09;96.18
36190;BME280;22232;50.914;13.858;2023-11-18T11:22:32;98627.28;;;6.10;95.28
36190;BME280;22232;50.914;13.858;2023-11-18T11:25:14;98619.06;;;6.19;92.01
36190;BME280;22232;50.914;13.858;2023-11-18T11:27:56;98629.75;;;6.26;89.16
36190;BME280;22232;50.914;13.858;2023-11-18T11:30:36;98635.25;;;6.25;93.50
36190;BME280;22232;50.914;13.858;2023-11-18T11:33:40;98644.53;;;6.20;93.17
36190;BME280;22232;50.914;13.858;2023-11-18T11:36:12;98650.69;;;6.21;92.87
36190;BME280;22232;50.914;13.858;2023-11-18T11:38:44;98638.53;;;6.27;91.87
36190;BME280;22232;50.914;13.858;2023-11-18T11:41:14;98642.09;;;6.34;91.53
36190;BME280;22232;50.914;13.858;2023-11-18T11:43:53;98633.72;;;6.30;92.28
36190;BME280;22232;50.914;13.858;2023-11-18T11:46:27;98633.34;;;6.18;88.20
36190;BME280;22232;50.914;13.858;2023-11-18T11:49:01;98631.22;;;6.14;89.99
36190;BME280;22232;50.914;13.858;2023-11-18T11:51:45;98622.53;;;6.20;91.07
36190;BME280;22232;50.914;13.858;2023-11-18T11:54:19;98623.28;;;6.14;92.23
36190;BME280;22232;50.914;13.858;2023-11-18T11:56:49;98621.72;;;6.05;95.55
36190;BME280;22232;50.914;13.858;2023-11-18T12:02:14;98618.03;;;5.91;95.09
36190;BME280;22232;50.914;13.858;2023-11-18T12:04:45;98613.16;;;6.03;98.11
36190;BME280;22232;50.914;13.858;2023-11-18T12:07:14;98614.78;;;6.04;96.36
36190;BME280;22232;50.914;13.858;2023-11-18T12:09:47;98603.25;;;6.11;95.79
36190;BME280;22232;50.914;13.858;2023-11-18T12:12:22;98600.53;;;6.19;94.16
36190;BME280;22232;50.914;13.858;2023-11-18T12:14:56;98603.53;;;6.16;95.39
36190;BME280;22232;50.914;13.858;2023-11-18T12:17:25;98603.63;;;6.23;92.06
36190;BME280;22232;50.914;13.858;2023-11-18T12:20:00;98594.59;;;6.17;90.65
36190;BME280;22232;50.914;13.858;2023-11-18T12:23:04;98601.94;;;5.92;88.87
36190;BME280;22232;50.914;13.858;2023-11-18T12:25:43;98603.91;;;5.98;90.72
36190;BME280;22232;50.914;13.858;2023-11-18T12:28:15;98600.81;;;6.10;92.02
36190;BME280;22232;50.914;13.858;2023-11-18T12:30:45;98594.59;;;6.17;89.03
36190;BME280;22232;50.914;13.858;2023-11-18T12:33:26;98593.66;;;5.95;88.04
36190;BME280;22232;50.914;13.858;2023-11-18T12:42:05;98583.00;;;5.51;91.67
36190;BME280;22232;50.914;13.858;2023-11-18T12:44:41;98582.00;;;5.52;91.45
36190;BME280;22232;50.914;13.858;2023-11-18T12:47:20;98577.72;;;5.51;92.54
36190;BME280;22232;50.914;13.858;2023-11-18T12:49:56;98587.44;;;5.50;95.18
36190;BME280;22232;50.914;13.858;2023-11-18T12:52:23;98590.66;;;5.46;95.45
36190;BME280;22232;50.914;13.858;2023-11-18T12:54:54;98581.25;;;5.43;96.85
36190;BME280;22232;50.914;13.858;2023-11-18T12:57:27;98572.22;;;5.52;97.76
36190;BME280;22232;50.914;13.858;2023-11-18T12:59:59;98562.81;;;5.50;97.94
36190;BME280;22232;50.914;13.858;2023-11-18T13:02:28;98563.38;;;5.45;97.44
36190;BME280;22232;50.914;13.858;2023-11-18T13:04:56;98566.84;;;5.46;95.56
36190;BME280;22232;50.914;13.858;2023-11-18T13:07:25;98559.91;;;5.45;97.10
36190;BME280;22232;50.914;13.858;2023-11-18T13:09:52;98557.72;;;5.48;97.20
36190;BME280;22232;50.914;13.858;2023-11-18T13:12:21;98554.44;;;5.46;95.75
36190;BME280;22232;50.914;13.858;2023-11-18T13:14:51;98562.00;;;5.49;95.66
36190;BME280;22232;50.914;13.858;2023-11-18T13:17:19;98559.19;;;5.51;96.55
36190;BME280;22232;50.914;13.858;2023-11-18T13:19:46;98564.47;;;5.51;98.73
36190;BME280;22232;50.914;13.858;2023-11-18T13:22:15;98552.06;;;5.51;99.54
36190;BME280;22232;50.914;13.858;2023-11-18T13:24:46;98559.09;;;5.59;99.80